createdAt,value
2018-05-07T00:02:22.774Z,16.00
2018-05-07T00:04:50.209Z,16.00
2018-05-07T00:07:17.680Z,15.90
2018-05-07T00:09:45.860Z,15.60
2018-05-07T00:12:13.294Z,15.60
2018-05-07T00:14:41.516Z,15.50
2018-05-07T00:17:08.966Z,15.50
2018-05-07T00:19:36.434Z,15.40
2018-05-07T00:22:03.966Z,15.30
2018-05-07T00:24:31.413Z,15.20
2018-05-07T00:26:58.853Z,15.10
2018-05-07T00:29:27.063Z,15.00
2018-05-07T00:31:54.500Z,15.00
2018-05-07T00:34:21.942Z,15.00
2018-05-07T00:36:49.384Z,15.00
2018-05-07T00:39:17.595Z,14.90
2018-05-07T00:41:45.025Z,14.90
2018-05-07T00:44:13.233Z,14.90
2018-05-07T00:46:40.665Z,14.80
2018-05-07T00:49:08.874Z,14.90
2018-05-07T00:51:36.301Z,14.90
2018-05-07T00:54:03.760Z,14.90
2018-05-07T00:56:31.963Z,14.90
2018-05-07T00:58:59.391Z,14.90
2018-05-07T01:01:26.831Z,15.00
2018-05-07T01:03:55.042Z,15.00
2018-05-07T01:06:22.487Z,14.90
2018-05-07T01:08:49.922Z,14.90
2018-05-07T01:11:18.143Z,14.90
2018-05-07T01:13:45.589Z,14.90
2018-05-07T01:16:13.033Z,14.90
2018-05-07T01:18:40.464Z,14.90
2018-05-07T01:21:08.687Z,14.90
2018-05-07T01:23:36.118Z,14.80
2018-05-07T01:26:03.567Z,14.70
2018-05-07T01:28:30.999Z,14.70
2018-05-07T01:30:58.439Z,14.70
2018-05-07T01:33:25.891Z,14.70
2018-05-07T01:35:53.327Z,14.70
2018-05-07T01:38:20.765Z,14.70
2018-05-07T01:40:48.211Z,14.70
2018-05-07T01:43:15.751Z,14.70
2018-05-07T01:45:43.979Z,14.70
2018-05-07T01:48:11.417Z,14.60
2018-05-07T01:50:38.848Z,14.60
2018-05-07T01:53:07.066Z,14.60
2018-05-07T01:55:34.492Z,14.50
2018-05-07T01:58:01.928Z,14.50
2018-05-07T02:00:30.146Z,14.40
2018-05-07T02:02:57.596Z,14.40
2018-05-07T02:05:25.044Z,14.40
2018-05-07T02:07:53.237Z,14.40
2018-05-07T02:10:20.753Z,14.40
2018-05-07T02:12:48.955Z,14.30
2018-05-07T02:15:16.401Z,14.30
2018-05-07T02:17:43.840Z,14.30
2018-05-07T02:20:12.044Z,14.30
2018-05-07T02:22:39.483Z,14.20
2018-05-07T02:25:07.692Z,14.10
2018-05-07T02:27:35.126Z,14.10
2018-05-07T02:30:02.569Z,14.10
2018-05-07T02:32:30.776Z,14.00
2018-05-07T02:34:58.223Z,14.00
2018-05-07T02:37:25.767Z,13.90
2018-05-07T02:39:53.972Z,13.90
2018-05-07T02:42:21.408Z,13.90
2018-05-07T02:44:48.841Z,13.80
2018-05-07T02:47:17.043Z,13.70
2018-05-07T02:49:44.488Z,13.70
2018-05-07T02:52:11.927Z,13.70
2018-05-07T02:54:39.368Z,13.60
2018-05-07T02:57:06.838Z,13.60
2018-05-07T02:59:35.048Z,13.50
2018-05-07T03:02:02.580Z,13.50
2018-05-07T03:04:30.803Z,13.40
2018-05-07T03:06:58.236Z,13.40
2018-05-07T03:09:25.696Z,13.40
2018-05-07T03:11:53.130Z,13.30
2018-05-07T03:14:21.333Z,13.30
2018-05-07T03:16:48.776Z,13.30
2018-05-07T03:19:16.221Z,13.30
2018-05-07T03:21:44.427Z,13.30
2018-05-07T03:24:11.879Z,13.20
2018-05-07T03:26:39.313Z,13.30
2018-05-07T03:29:07.521Z,13.30
2018-05-07T03:31:36.978Z,13.30
2018-05-07T03:34:05.276Z,13.20
2018-05-07T03:36:32.711Z,13.20
2018-05-07T03:39:00.920Z,13.20
2018-05-07T03:41:28.358Z,13.20
2018-05-07T03:43:56.555Z,13.10
2018-05-07T03:46:24.005Z,13.10
2018-05-07T03:48:51.440Z,13.20
2018-05-07T03:51:19.649Z,13.00
2018-05-07T03:53:47.086Z,13.00
2018-05-07T03:56:14.532Z,13.00
2018-05-07T03:58:42.740Z,13.00
2018-05-07T04:01:10.184Z,13.00
2018-05-07T04:03:37.617Z,13.00
2018-05-07T04:06:05.836Z,12.90
2018-05-07T04:08:33.268Z,12.90
2018-05-07T04:11:00.703Z,12.90
2018-05-07T04:13:28.911Z,12.80
2018-05-07T04:15:56.349Z,12.80
2018-05-07T04:21:28.192Z,12.70
2018-05-07T04:24:04.343Z,12.70
2018-05-07T04:26:31.789Z,12.60
2018-05-07T04:28:59.237Z,12.70
2018-05-07T04:31:26.672Z,12.70
2018-05-07T04:33:54.142Z,12.70
2018-05-07T04:36:21.637Z,12.70
2018-05-07T04:38:50.855Z,12.90
2018-05-07T04:41:18.302Z,12.80
2018-05-07T04:43:45.865Z,12.90
2018-05-07T04:46:14.060Z,13.00
2018-05-07T04:48:42.272Z,13.00
2018-05-07T04:51:09.785Z,13.00
2018-05-07T04:53:38.000Z,13.10
2018-05-07T04:56:05.434Z,13.10
2018-05-07T04:58:32.890Z,13.20
2018-05-07T05:01:01.105Z,13.30
2018-05-07T05:03:29.549Z,13.20
2018-05-07T05:05:57.007Z,13.30
2018-05-07T05:08:25.201Z,13.30
2018-05-07T05:10:52.630Z,13.30
2018-05-07T05:13:20.089Z,13.30
2018-05-07T05:15:48.358Z,13.50
2018-05-07T05:18:16.580Z,13.60
2018-05-07T05:20:44.082Z,13.60
2018-05-07T05:23:12.525Z,13.70
2018-05-07T05:25:39.980Z,13.70
2018-05-07T05:28:07.422Z,13.80
2018-05-07T05:30:34.850Z,13.90
2018-05-07T05:33:03.115Z,14.10
2018-05-07T05:35:31.389Z,14.20
2018-05-07T05:37:59.668Z,14.40
2018-05-07T05:40:27.881Z,14.50
2018-05-07T05:42:55.323Z,14.50
2018-05-07T05:45:22.775Z,14.60
2018-05-07T05:47:50.216Z,14.60
2018-05-07T05:50:18.440Z,14.70
2018-05-07T05:52:45.951Z,14.70
2018-05-07T05:55:14.177Z,14.90
2018-05-07T05:57:42.379Z,15.00
2018-05-07T06:00:09.811Z,15.00
2018-05-07T06:02:37.251Z,15.10
2018-05-07T06:05:04.697Z,15.20
2018-05-07T06:07:32.120Z,15.30
2018-05-07T06:10:00.329Z,15.60
2018-05-07T06:12:27.763Z,15.50
2018-05-07T06:14:56.075Z,15.80
2018-05-07T06:17:23.402Z,15.80
2018-05-07T06:19:50.840Z,15.90
2018-05-07T06:22:18.278Z,16.10
2018-05-07T06:24:45.720Z,16.30
2018-05-07T06:27:13.235Z,16.30
2018-05-07T06:29:41.465Z,16.80
2018-05-07T06:32:09.658Z,16.90
2018-05-07T06:34:37.103Z,16.90
2018-05-07T06:37:04.552Z,16.90
2018-05-07T06:39:31.986Z,17.00
2018-05-07T06:41:59.432Z,17.10
2018-05-07T06:44:26.859Z,17.10
2018-05-07T06:46:55.071Z,17.40
2018-05-07T06:49:22.724Z,17.40
2018-05-07T06:51:50.220Z,17.60
2018-05-07T06:54:17.709Z,17.90
2018-05-07T06:56:45.955Z,18.70
2018-05-07T06:59:13.412Z,18.70
2018-05-07T07:01:40.914Z,18.70
2018-05-07T07:04:09.117Z,19.20
2018-05-07T07:06:36.564Z,19.20
2018-05-07T07:09:04.004Z,19.60
2018-05-07T07:11:32.275Z,20.30
2018-05-07T07:14:00.543Z,20.50
2018-05-07T07:16:28.775Z,20.50
2018-05-07T07:18:56.316Z,20.50
2018-05-07T07:21:23.774Z,20.60
2018-05-07T07:23:51.208Z,20.90
2018-05-07T07:26:18.648Z,21.00
2018-05-07T07:28:47.544Z,21.30
2018-05-07T07:31:15.757Z,21.60
2018-05-07T07:33:43.248Z,21.50
2018-05-07T07:36:10.679Z,21.90
2018-05-07T07:38:38.115Z,22.20
2018-05-07T07:41:05.556Z,22.40
2018-05-07T07:43:32.992Z,22.60
2018-05-07T07:46:01.197Z,23.00
2018-05-07T07:48:28.638Z,23.00
2018-05-07T07:50:56.848Z,23.20
2018-05-07T07:53:24.318Z,23.20
2018-05-07T07:55:51.727Z,23.00
2018-05-07T07:58:19.931Z,23.30
2018-05-07T08:00:47.375Z,23.30
2018-05-07T08:03:14.810Z,23.10
2018-05-07T08:05:43.022Z,23.50
2018-05-07T08:08:10.456Z,23.50
2018-05-07T08:10:37.908Z,24.00
2018-05-07T08:13:06.111Z,24.60
2018-05-07T08:15:33.559Z,24.50
2018-05-07T08:18:00.986Z,24.80
2018-05-07T08:20:29.196Z,24.80
2018-05-07T08:22:56.638Z,24.80
2018-05-07T08:25:24.075Z,24.90
2018-05-07T08:27:52.300Z,25.50
2018-05-07T08:30:19.767Z,25.40
2018-05-07T08:32:47.189Z,25.60
2018-05-07T08:35:14.637Z,25.60
2018-05-07T08:37:42.080Z,25.90
2018-05-07T08:40:10.324Z,26.00
2018-05-07T08:42:37.761Z,26.00
2018-05-07T08:45:05.221Z,26.30
2018-05-07T08:47:32.671Z,26.50
2018-05-07T08:50:00.108Z,26.90
2018-05-07T08:52:27.554Z,26.90
2018-05-07T08:54:54.984Z,27.10
2018-05-07T08:57:22.424Z,27.20
2018-05-07T08:59:50.823Z,27.10
2018-05-07T09:02:19.089Z,26.90
2018-05-07T09:04:46.479Z,26.90
2018-05-07T09:07:13.924Z,27.10
2018-05-07T09:09:42.165Z,27.20
2018-05-07T09:12:09.612Z,27.10
2018-05-07T09:14:37.068Z,27.20
2018-05-07T09:17:04.508Z,27.50
2018-05-07T09:19:31.956Z,27.30
2018-05-07T09:21:59.396Z,27.50
2018-05-07T09:24:27.598Z,27.30
2018-05-07T09:26:55.039Z,27.30
2018-05-07T09:29:22.486Z,27.40
2018-05-07T09:31:49.925Z,27.60
2018-05-07T09:34:18.123Z,27.60
2018-05-07T09:36:45.574Z,27.60
2018-05-07T09:39:13.772Z,27.90
2018-05-07T09:41:41.222Z,27.90
2018-05-07T09:44:08.657Z,28.00
2018-05-07T09:46:36.863Z,27.90
2018-05-07T09:49:04.379Z,27.80
2018-05-07T09:51:31.759Z,28.00
2018-05-07T09:53:59.194Z,27.80
2018-05-07T09:56:27.403Z,28.00
2018-05-07T09:58:57.638Z,27.90
2018-05-07T10:01:25.092Z,28.00
2018-05-07T10:03:52.544Z,28.20
2018-05-07T10:06:19.979Z,28.50
2018-05-07T10:08:47.420Z,28.40
2018-05-07T10:11:15.626Z,28.60
2018-05-07T10:13:43.056Z,28.60
2018-05-07T10:16:11.279Z,28.40
2018-05-07T10:18:38.721Z,28.30
2018-05-07T10:21:06.187Z,28.20
2018-05-07T10:23:33.725Z,28.10
2018-05-07T10:26:01.101Z,28.30
2018-05-07T10:28:28.525Z,28.20
2018-05-07T10:30:56.755Z,28.50
2018-05-07T10:33:24.469Z,28.50
2018-05-07T10:35:51.950Z,28.90
2018-05-07T10:38:19.387Z,29.00
2018-05-07T10:40:46.819Z,29.10
2018-05-07T10:43:15.036Z,29.30
2018-05-07T10:45:42.491Z,29.30
2018-05-07T10:48:09.921Z,29.20
2018-05-07T10:50:37.372Z,29.40
2018-05-07T10:53:06.567Z,29.00
2018-05-07T10:55:34.797Z,29.10
2018-05-07T10:58:02.242Z,29.10
2018-05-07T11:00:29.686Z,29.00
2018-05-07T11:02:57.307Z,28.80
2018-05-07T11:05:24.742Z,28.70
2018-05-07T11:07:52.198Z,28.80
2018-05-07T11:10:19.636Z,28.70
2018-05-07T11:12:47.104Z,29.00
2018-05-07T11:15:14.540Z,29.00
2018-05-07T11:17:42.052Z,29.20
2018-05-07T11:20:09.487Z,29.10
2018-05-07T11:22:37.703Z,28.60
2018-05-07T11:25:05.926Z,28.80
2018-05-07T11:27:33.372Z,28.80
2018-05-07T11:30:00.808Z,28.80
2018-05-07T11:32:28.263Z,28.80
2018-05-07T11:34:55.713Z,28.80
2018-05-07T11:37:23.955Z,28.60
2018-05-07T11:39:51.391Z,28.50
2018-05-07T11:42:18.836Z,28.40
2018-05-07T11:44:46.272Z,28.20
2018-05-07T11:47:13.715Z,28.10
2018-05-07T11:49:41.147Z,28.10
2018-05-07T11:52:08.602Z,28.20
2018-05-07T11:54:36.023Z,28.10
2018-05-07T11:57:03.481Z,28.00
2018-05-07T11:59:30.917Z,27.90
2018-05-07T12:01:58.394Z,27.90
2018-05-07T12:04:25.919Z,27.80
2018-05-07T12:06:53.366Z,27.70
2018-05-07T12:09:21.584Z,27.30
2018-05-07T12:11:49.027Z,27.30
2018-05-07T12:14:16.455Z,27.20
2018-05-07T12:16:44.011Z,26.90
2018-05-07T12:19:11.460Z,26.80
2018-05-07T12:21:39.664Z,26.80
2018-05-07T12:24:07.102Z,26.70
2018-05-07T12:26:35.316Z,26.60
2018-05-07T12:29:02.752Z,26.60
2018-05-07T12:31:30.362Z,26.70
2018-05-07T12:33:58.397Z,26.40
2018-05-07T12:36:25.855Z,26.40
2018-05-07T12:38:53.296Z,26.50
2018-05-07T12:41:20.745Z,26.50
2018-05-07T12:43:48.180Z,26.40
2018-05-07T12:46:16.400Z,26.20
2018-05-07T12:48:43.844Z,26.20
2018-05-07T12:51:11.520Z,26.20
2018-05-07T12:53:38.955Z,26.10
2018-05-07T12:56:06.393Z,26.10
2018-05-07T12:58:34.591Z,26.00
2018-05-07T13:01:02.046Z,26.00
2018-05-07T13:03:29.511Z,26.00
2018-05-07T13:05:57.761Z,26.00
2018-05-07T13:08:25.123Z,26.00
2018-05-07T13:10:53.384Z,26.20
2018-05-07T13:13:23.700Z,26.10
2018-05-07T13:15:51.131Z,26.10
2018-05-07T13:18:18.591Z,26.10
2018-05-07T13:20:47.029Z,26.10
2018-05-07T13:23:14.474Z,26.10
2018-05-07T13:25:42.675Z,26.10
2018-05-07T13:28:10.137Z,26.10
2018-05-07T13:30:37.576Z,26.00
2018-05-07T13:33:05.078Z,26.00
2018-05-07T13:35:33.224Z,26.20
2018-05-07T13:38:00.677Z,26.20
2018-05-07T13:40:28.117Z,26.10
2018-05-07T13:42:55.556Z,26.20
2018-05-07T13:45:23.764Z,26.30
2018-05-07T13:47:51.204Z,26.30
2018-05-07T13:50:18.644Z,26.30
2018-05-07T13:52:46.866Z,26.40
2018-05-07T13:55:14.310Z,26.40
2018-05-07T13:57:42.200Z,26.40
2018-05-07T14:00:09.673Z,26.30
2018-05-07T14:02:37.148Z,26.20
2018-05-07T14:05:04.555Z,26.20
2018-05-07T14:07:32.002Z,26.20
2018-05-07T14:09:59.528Z,26.20
2018-05-07T14:12:27.752Z,26.20
2018-05-07T14:14:55.194Z,26.30
2018-05-07T14:17:22.637Z,26.20
2018-05-07T14:19:51.003Z,26.20
2018-05-07T14:22:19.219Z,26.10
2018-05-07T14:24:46.657Z,26.10
2018-05-07T14:27:14.098Z,26.00
2018-05-07T14:29:42.309Z,26.00
2018-05-07T14:32:09.748Z,26.00
2018-05-07T14:34:37.271Z,25.90
2018-05-07T14:37:04.707Z,26.00
2018-05-07T14:39:32.150Z,25.90
2018-05-07T14:42:00.368Z,25.80
2018-05-07T14:44:28.644Z,25.90
2018-05-07T14:46:56.859Z,25.90
2018-05-07T14:49:24.305Z,25.90
2018-05-07T14:51:52.772Z,25.90
2018-05-07T14:54:20.979Z,26.00
2018-05-07T14:56:48.451Z,26.00
2018-05-07T14:59:15.893Z,26.00
2018-05-07T15:01:43.331Z,26.00
2018-05-07T15:04:10.775Z,26.10
2018-05-07T15:06:38.221Z,26.00
2018-05-07T15:09:06.423Z,26.00
2018-05-07T15:11:33.878Z,26.00
2018-05-07T15:14:13.117Z,25.90
2018-05-07T15:16:40.569Z,26.00
2018-05-07T15:19:08.019Z,26.10
2018-05-07T15:21:35.469Z,26.10
2018-05-07T15:24:03.681Z,26.00
2018-05-07T15:26:31.120Z,26.00
2018-05-07T15:28:58.577Z,26.00
2018-05-07T15:31:26.020Z,25.90
2018-05-07T15:33:53.462Z,25.80
2018-05-07T15:36:21.746Z,25.70
2018-05-07T15:38:49.115Z,25.60
2018-05-07T15:41:16.553Z,25.60
2018-05-07T15:43:44.813Z,25.70
2018-05-07T15:46:12.236Z,25.70
2018-05-07T15:48:39.660Z,25.70
2018-05-07T15:51:07.095Z,25.70
2018-05-07T15:53:35.307Z,25.80
2018-05-07T15:56:02.766Z,25.70
2018-05-07T15:58:30.197Z,25.80
2018-05-07T16:00:58.572Z,25.80
2018-05-07T16:03:26.801Z,25.60
2018-05-07T16:05:54.232Z,25.60
2018-05-07T16:08:21.690Z,25.60
2018-05-07T16:10:49.142Z,25.60
2018-05-07T16:13:16.590Z,25.50
2018-05-07T16:15:44.029Z,25.60
2018-05-07T16:18:12.241Z,25.40
2018-05-07T16:20:39.739Z,25.40
2018-05-07T16:23:07.259Z,25.40
2018-05-07T16:25:34.814Z,25.40
2018-05-07T16:28:02.337Z,25.50
2018-05-07T16:30:29.730Z,25.50
2018-05-07T16:32:57.173Z,25.50
2018-05-07T16:35:24.608Z,25.40
2018-05-07T16:37:52.809Z,25.50
2018-05-07T16:40:20.250Z,25.40
2018-05-07T16:42:47.760Z,25.40
2018-05-07T16:45:15.893Z,25.40
2018-05-07T16:47:43.332Z,25.40
2018-05-07T16:50:11.522Z,25.40
2018-05-07T16:52:39.987Z,25.40
2018-05-07T16:55:08.263Z,25.40
2018-05-07T16:57:36.455Z,25.30
2018-05-07T17:00:03.901Z,25.30
2018-05-07T17:02:32.100Z,25.20
2018-05-07T17:04:59.536Z,25.20
2018-05-07T17:07:26.972Z,25.20
2018-05-07T17:09:55.264Z,25.20
2018-05-07T17:12:23.497Z,25.20
2018-05-07T17:14:50.932Z,25.10
2018-05-07T17:17:18.378Z,25.10
2018-05-07T17:19:45.910Z,25.10
2018-05-07T17:22:14.120Z,25.10
2018-05-07T17:24:41.568Z,25.10
2018-05-07T17:27:08.998Z,25.10
2018-05-07T17:29:36.439Z,25.00
2018-05-07T17:32:04.647Z,24.90
2018-05-07T17:34:34.121Z,24.90
2018-05-07T17:37:02.319Z,24.90
2018-05-07T17:39:29.759Z,24.90
2018-05-07T17:41:57.978Z,24.90
2018-05-07T17:44:37.269Z,24.80
2018-05-07T17:47:17.458Z,24.80
2018-05-07T17:49:44.887Z,24.80
2018-05-07T17:52:13.092Z,24.70
2018-05-07T17:54:40.636Z,24.70
2018-05-07T17:57:08.993Z,24.70
2018-05-07T17:59:37.280Z,24.50
2018-05-07T18:02:04.724Z,24.50
2018-05-07T18:04:33.012Z,24.30
2018-05-07T18:07:01.268Z,24.20
2018-05-07T18:09:28.731Z,24.20
2018-05-07T18:11:57.016Z,23.90
2018-05-07T18:14:25.216Z,23.80
2018-05-07T18:16:52.648Z,23.70
2018-05-07T18:19:20.920Z,23.50
2018-05-07T18:21:49.126Z,23.40
2018-05-07T18:24:17.582Z,23.40
2018-05-07T18:26:45.859Z,23.10
2018-05-07T18:29:14.075Z,22.90
2018-05-07T18:31:41.587Z,22.90
2018-05-07T18:34:09.800Z,22.60
2018-05-07T18:36:37.239Z,22.60
2018-05-07T18:39:05.750Z,22.50
2018-05-07T18:41:33.190Z,22.40
2018-05-07T18:44:00.640Z,22.30
2018-05-07T18:46:28.081Z,22.10
2018-05-07T18:48:56.293Z,21.90
2018-05-07T18:51:23.805Z,21.80
2018-05-07T18:53:52.093Z,21.60
2018-05-07T18:56:20.359Z,21.50
2018-05-07T18:58:48.572Z,21.40
2018-05-07T19:01:16.141Z,21.40
2018-05-07T19:03:43.560Z,21.30
2018-05-07T19:06:11.771Z,21.10
2018-05-07T19:08:39.213Z,21.10
2018-05-07T19:11:06.660Z,21.00
2018-05-07T19:13:34.100Z,20.80
2018-05-07T19:16:02.825Z,20.60
2018-05-07T19:18:30.270Z,20.50
2018-05-07T19:20:57.707Z,20.50
2018-05-07T19:23:25.915Z,20.20
2018-05-07T19:25:53.344Z,20.20
2018-05-07T19:28:20.779Z,20.10
2018-05-07T19:30:49.028Z,19.90
2018-05-07T19:33:16.471Z,19.80
2018-05-07T19:35:44.696Z,19.50
2018-05-07T19:38:12.905Z,19.40
2018-05-07T19:40:40.368Z,19.30
2018-05-07T19:43:07.866Z,19.20
2018-05-07T19:45:35.328Z,19.00
2018-05-07T19:48:02.808Z,18.90
2018-05-07T19:50:31.010Z,18.70
2018-05-07T19:52:58.460Z,18.70
2018-05-07T19:55:25.900Z,18.70
2018-05-07T19:57:54.107Z,18.60
2018-05-07T20:00:21.562Z,18.60
2018-05-07T20:02:49.000Z,18.60
2018-05-07T20:05:16.440Z,18.60
2018-05-07T20:07:44.655Z,18.60
2018-05-07T20:10:13.100Z,18.60
2018-05-07T20:12:41.368Z,18.70
2018-05-07T20:15:08.793Z,18.70
2018-05-07T20:17:36.248Z,18.80
2018-05-07T20:20:03.731Z,18.80
2018-05-07T20:22:31.128Z,18.80
2018-05-07T20:24:58.571Z,18.80
2018-05-07T20:27:26.017Z,18.90
2018-05-07T20:29:56.244Z,18.80
2018-05-07T20:32:24.469Z,18.60
2018-05-07T20:34:51.905Z,18.60
2018-05-07T20:37:19.343Z,18.50
2018-05-07T20:39:46.813Z,18.50
2018-05-07T20:42:14.257Z,18.40
2018-05-07T20:44:41.700Z,18.20
2018-05-07T20:47:09.904Z,18.20
2018-05-07T20:49:37.359Z,18.20
2018-05-07T20:52:04.811Z,18.10
2018-05-07T20:54:32.264Z,18.10
2018-05-07T20:56:59.691Z,18.10
2018-05-07T20:59:27.944Z,18.00
2018-05-07T21:01:55.336Z,18.00
2018-05-07T21:04:22.781Z,18.00
2018-05-07T21:06:50.986Z,18.00
2018-05-07T21:09:18.443Z,18.00
2018-05-07T21:11:45.972Z,17.90
2018-05-07T21:14:14.195Z,17.80
2018-05-07T21:16:41.646Z,17.80
2018-05-07T21:19:09.086Z,17.70
2018-05-07T21:21:36.631Z,17.60
2018-05-07T21:24:04.912Z,17.60
2018-05-07T21:26:32.360Z,17.60
2018-05-07T21:29:00.581Z,17.60
2018-05-07T21:31:28.027Z,17.60
2018-05-07T21:33:55.484Z,17.60
2018-05-07T21:36:22.916Z,17.70
2018-05-07T21:38:50.429Z,17.80
2018-05-07T21:41:18.585Z,17.80
2018-05-07T21:43:46.015Z,17.80
2018-05-07T21:46:13.448Z,17.80
2018-05-07T21:48:41.661Z,17.80
2018-05-07T21:51:09.102Z,17.80
2018-05-07T21:53:36.534Z,17.80
2018-05-07T21:56:04.747Z,17.80
2018-05-07T21:58:32.210Z,17.80
2018-05-07T22:00:59.782Z,17.80
2018-05-07T22:03:27.236Z,17.80
2018-05-07T22:05:54.684Z,17.70
2018-05-07T22:08:22.170Z,17.70
2018-05-07T22:10:49.611Z,17.70
2018-05-07T22:13:17.056Z,17.70
2018-05-07T22:15:44.525Z,17.60
2018-05-07T22:18:11.974Z,17.60
2018-05-07T22:20:39.425Z,17.70
2018-05-07T22:23:06.866Z,17.60
2018-05-07T22:25:34.364Z,17.50
2018-05-07T22:28:01.783Z,17.40
2018-05-07T22:30:29.228Z,17.40
2018-05-07T22:32:57.432Z,17.40
2018-05-07T22:35:24.886Z,17.30
2018-05-07T22:37:52.341Z,17.30
2018-05-07T22:40:19.800Z,17.30
2018-05-07T22:42:47.236Z,17.30
2018-05-07T22:45:14.676Z,17.30
2018-05-07T22:47:42.889Z,17.20
2018-05-07T22:50:10.342Z,17.20
2018-05-07T22:52:37.788Z,17.20
2018-05-07T22:55:07.190Z,17.20
2018-05-07T22:57:34.635Z,17.10
2018-05-07T23:00:02.079Z,17.10
2018-05-07T23:02:30.360Z,17.00
2018-05-07T23:04:58.604Z,17.00
2018-05-07T23:07:26.038Z,17.00
2018-05-07T23:09:53.483Z,17.00
2018-05-07T23:12:20.916Z,17.00
2018-05-07T23:14:48.370Z,17.00
2018-05-07T23:17:15.816Z,17.00
2018-05-07T23:19:44.032Z,16.90
2018-05-07T23:22:11.487Z,16.90
2018-05-07T23:24:39.030Z,16.90
2018-05-07T23:27:06.464Z,16.90
2018-05-07T23:29:34.676Z,16.80
2018-05-07T23:32:02.130Z,16.80
2018-05-07T23:34:29.594Z,16.70
2018-05-07T23:36:57.028Z,16.70
2018-05-07T23:39:25.229Z,16.70
2018-05-07T23:41:52.690Z,16.70
2018-05-07T23:44:20.131Z,16.60
2018-05-07T23:46:47.560Z,16.60
2018-05-07T23:49:15.783Z,16.60
2018-05-07T23:51:43.220Z,16.60
2018-05-07T23:54:10.666Z,16.60
2018-05-07T23:56:38.106Z,16.50
2018-05-07T23:59:06.314Z,16.40
